KSNY/SNY METAR and TAF weather

Enter ICAO airport designator
Station Type Date Time Source
KSNY METAR 2020/01/27 16:53 UTC NOAA

KSNY 271653Z AUTO 15007KT 9SM -SN OVC070 M01/M04 A2998 RMK AO2 SNB51 SLP181 P0000 T10111044


Station Type Date Time Source
KSNY Decoded METAR 2020/01/27 16:53 UTC NOAA

SIDNEY MUNICIPAL AIRPORT, NE, United States (KSNY) 41-06N 102-59W 1307M
Jan 27, 2020 - 11:53 AM EST / 2020.01.27 1653 UTC
Wind: from the SSE (150 degrees) at 8 MPH (7 KT):0
Visibility: 9 mile(s):0
Sky conditions: overcast
Weather: light snow
Precipitation last hour: A trace
Temperature: 30.0 F (-1.1 C)
Windchill: 23 F (-5 C):1
Dew Point: 24.1 F (-4.4 C)
Relative Humidity: 78%
Pressure (altimeter): 29.98 in. Hg (1015 hPa)
ob: KSNY 271653Z AUTO 15007KT 9SM -SN OVC070 M01/M04 A2998 RMK AO2 SNB51 SLP181 P0000 T10111044
cycle: 17

Station Type Date Time Source
KSNY TAF 2020/01/27 12:48 UTC NOAA

TAF KSNY 271144Z 2712/2812 VRB04KT 6SM BR BKN060
FM272100 20007KT P6SM VCSH OVC030
FM280000 00000KT 6SM -SHSNRA BR OVC015

Example: see airport list